Time;durP1;ratioP1;P1;durP2;ratioP2;P2;SDS_P1;SDS_P2;PMS_P1;PMS_P2;Temp;Humidity;BMP_temperature;BMP_pressure;BME280_temperature;BME280_humidity;BME280_pressure;Samples;Min_cycle;Max_cycle;Signal;HPM_P1;HPM_P2
2023/02/25 00:02:20;;;;;;;9.57;4.63;;;;;;;;;;777908;181;817433;-66
2023/02/25 00:04:46;;;;;;;14.97;6.50;;;;;;;;;;767353;181;918253;-65
2023/02/25 00:07:11;;;;;;;10.10;6.67;;;;;;;;;;770237;182;918396;-65
2023/02/25 00:09:37;;;;;;;10.70;5.60;;;;;;;;;;778274;180;812818;-66
2023/02/25 00:12:03;;;;;;;9.63;4.43;;;;;;;;;;767903;181;920046;-68
2023/02/25 00:14:29;;;;;;;9.52;5.93;;;;;;;;;;766177;181;920394;-65
2023/02/25 00:16:55;;;;;;;7.20;5.10;;;;;;;;;;774396;181;879257;-67
2023/02/25 00:19:21;;;;;;;8.70;5.00;;;;;;;;;;756874;181;920445;-69
2023/02/25 00:21:46;;;;;;;11.13;5.67;;;;;;;;;;766887;181;917939;-70
2023/02/25 00:24:13;;;;;;;10.90;5.50;;;;;;;;;;772744;180;920573;-66
2023/02/25 00:26:38;;;;;;;8.27;4.60;;;;;;;;;;777394;180;920074;-71
2023/02/25 00:29:04;;;;;;;8.43;4.90;;;;;;;;;;768979;181;919458;-71
2023/02/25 00:31:30;;;;;;;7.30;4.33;;;;;;;;;;772222;181;816604;-70
2023/02/25 00:33:56;;;;;;;9.70;4.83;;;;;;;;;;776688;181;899826;-66
2023/02/25 00:36:22;;;;;;;11.70;5.37;;;;;;;;;;775458;180;918740;-70
2023/02/25 00:38:47;;;;;;;11.80;6.70;;;;;;;;;;773726;181;918866;-66
2023/02/25 00:41:14;;;;;;;9.07;5.30;;;;;;;;;;780156;180;921454;-70
2023/02/25 00:43:39;;;;;;;11.57;5.57;;;;;;;;;;776769;180;919010;-66
2023/02/25 00:46:05;;;;;;;10.53;5.00;;;;;;;;;;780793;180;920684;-67
2023/02/25 00:48:31;;;;;;;8.40;5.72;;;;;;;;;;766037;183;818874;-69
2023/02/25 00:50:57;;;;;;;13.20;5.00;;;;;;;;;;770238;183;819247;-65
2023/02/25 00:53:22;;;;;;;12.33;5.60;;;;;;;;;;771708;180;918882;-70
2023/02/25 00:55:48;;;;;;;8.47;5.23;;;;;;;;;;771209;181;821168;-69
2023/02/25 00:58:14;;;;;;;9.33;5.00;;;;;;;;;;776621;180;920371;-66
2023/02/25 01:00:43;;;;;;;9.20;6.57;;;;;;;;;;774097;180;919280;-66
2023/02/25 01:03:06;;;;;;;11.03;6.20;;;;;;;;;;773209;181;916889;-66
2023/02/25 01:05:32;;;;;;;10.27;6.90;;;;;;;;;;778188;180;916076;-66
2023/02/25 01:07:57;;;;;;;12.03;7.47;;;;;;;;;;772383;181;917022;-70
2023/02/25 01:10:23;;;;;;;14.67;9.03;;;;;;;;;;771069;181;962089;-70
2023/02/25 01:12:49;;;;;;;10.43;7.10;;;;;;;;;;772005;181;918764;-66
2023/02/25 01:15:15;;;;;;;11.87;7.90;;;;;;;;;;773025;179;916020;-69
2023/02/25 01:17:41;;;;;;;13.77;8.80;;;;;;;;;;756715;184;918816;-70
2023/02/25 01:20:11;;;;;;;15.63;8.90;;;;;;;;;;765178;181;926539;-69
2023/02/25 01:22:33;;;;;;;23.73;10.10;;;;;;;;;;776984;181;910808;-71
2023/02/25 01:24:59;;;;;;;14.73;8.00;;;;;;;;;;773895;180;920053;-71
2023/02/25 01:27:25;;;;;;;15.15;9.27;;;;;;;;;;776325;180;920782;-65
2023/02/25 01:29:51;;;;;;;24.37;8.50;;;;;;;;;;774816;181;920460;-70
2023/02/25 01:32:16;;;;;;;21.30;8.70;;;;;;;;;;768791;181;919083;-70
2023/02/25 01:34:42;;;;;;;15.30;9.30;;;;;;;;;;773882;181;816721;-66
2023/02/25 01:37:08;;;;;;;15.70;9.30;;;;;;;;;;778467;180;913048;-65
2023/02/25 01:39:35;;;;;;;16.20;7.90;;;;;;;;;;773546;180;919601;-64
2023/02/25 01:42:00;;;;;;;15.10;7.90;;;;;;;;;;765486;182;917958;-69
2023/02/25 01:44:27;;;;;;;14.90;6.87;;;;;;;;;;765718;181;919015;-69
2023/02/25 01:46:53;;;;;;;15.47;9.43;;;;;;;;;;771428;181;629362;-69
2023/02/25 01:49:27;;;;;;;18.20;11.43;;;;;;;;;;764384;180;818260;-69
2023/02/25 01:51:53;;;;;;;18.77;11.57;;;;;;;;;;773884;180;916949;-70
2023/02/25 01:54:19;;;;;;;17.10;8.83;;;;;;;;;;771338;181;917751;-65
2023/02/25 01:56:44;;;;;;;19.60;10.50;;;;;;;;;;765203;182;920063;-65
2023/02/25 01:59:10;;;;;;;19.40;11.07;;;;;;;;;;768249;182;914979;-70
2023/02/25 02:01:36;;;;;;;14.00;9.23;;;;;;;;;;768778;181;919558;-70
2023/02/25 02:04:03;;;;;;;17.77;10.37;;;;;;;;;;768500;181;919258;-70
2023/02/25 02:06:29;;;;;;;18.50;10.60;;;;;;;;;;762154;182;919493;-65
2023/02/25 02:08:55;;;;;;;16.55;8.68;;;;;;;;;;761681;183;919082;-65
2023/02/25 02:11:20;;;;;;;16.30;11.00;;;;;;;;;;773878;181;918851;-70
2023/02/25 02:13:46;;;;;;;17.47;10.07;;;;;;;;;;771958;180;918279;-65
2023/02/25 02:16:28;;;;;;;19.37;11.40;;;;;;;;;;770674;181;920298;-65
2023/02/25 02:18:54;;;;;;;14.20;9.80;;;;;;;;;;768618;180;915227;-65
2023/02/25 02:21:21;;;;;;;15.85;9.32;;;;;;;;;;767896;179;921466;-70
2023/02/25 02:23:47;;;;;;;13.77;9.63;;;;;;;;;;756209;186;929776;-66
2023/02/25 02:26:34;;;;;;;10.60;7.60;;;;;;;;;;760503;183;818460;-65
2023/02/25 02:29:04;;;;;;;13.07;8.30;;;;;;;;;;766974;179;818460;-71
2023/02/25 02:31:32;;;;;;;10.53;7.23;;;;;;;;;;762067;183;918981;-65
2023/02/25 02:33:58;;;;;;;8.70;6.33;;;;;;;;;;761263;180;1021881;-66
2023/02/25 02:36:24;;;;;;;11.70;7.17;;;;;;;;;;755553;185;918730;-70
2023/02/25 02:38:56;;;;;;;7.60;6.17;;;;;;;;;;759302;184;815583;-70
2023/02/25 02:41:24;;;;;;;8.57;6.57;;;;;;;;;;768797;179;1016532;-64
2023/02/25 02:43:51;;;;;;;10.53;5.87;;;;;;;;;;774379;181;912762;-65
2023/02/25 02:46:16;;;;;;;9.43;6.67;;;;;;;;;;766306;179;914947;-66
2023/02/25 02:48:49;;;;;;;10.97;5.77;;;;;;;;;;768265;181;916611;-73
2023/02/25 02:51:15;;;;;;;7.73;5.37;;;;;;;;;;767817;181;919255;-70
2023/02/25 02:53:41;;;;;;;8.33;5.60;;;;;;;;;;772190;182;918392;-71
2023/02/25 02:56:07;;;;;;;6.90;5.30;;;;;;;;;;766590;181;915227;-66
2023/02/25 02:58:33;;;;;;;6.87;5.23;;;;;;;;;;768412;180;915210;-66
2023/02/25 03:01:10;;;;;;;10.52;6.20;;;;;;;;;;773488;181;919511;-71
2023/02/25 03:03:36;;;;;;;7.10;4.93;;;;;;;;;;775246;180;918888;-67
2023/02/25 03:06:02;;;;;;;9.10;5.30;;;;;;;;;;774799;181;918590;-67
2023/02/25 03:08:28;;;;;;;5.63;4.37;;;;;;;;;;773045;181;919651;-67
2023/02/25 03:10:54;;;;;;;6.80;4.47;;;;;;;;;;775286;181;816818;-72
2023/02/25 03:13:20;;;;;;;7.13;4.57;;;;;;;;;;767270;182;873853;-73
2023/02/25 03:15:45;;;;;;;6.97;3.83;;;;;;;;;;767188;181;919947;-72
2023/02/25 03:18:15;;;;;;;6.00;4.00;;;;;;;;;;764451;183;920526;-72
2023/02/25 03:20:39;;;;;;;5.27;3.60;;;;;;;;;;767024;183;915837;-71
2023/02/25 03:23:05;;;;;;;6.90;4.40;;;;;;;;;;761921;181;918924;-70
2023/02/25 03:25:34;;;;;;;6.50;3.77;;;;;;;;;;764349;181;918967;-64
2023/02/25 03:27:59;;;;;;;6.03;3.90;;;;;;;;;;775123;181;918600;-64
2023/02/25 03:30:27;;;;;;;4.33;3.87;;;;;;;;;;771981;180;918739;-68
2023/02/25 03:32:53;;;;;;;6.40;3.33;;;;;;;;;;774827;181;920439;-65
2023/02/25 03:35:19;;;;;;;4.80;3.50;;;;;;;;;;774087;180;830709;-66
2023/02/25 03:37:44;;;;;;;5.70;3.73;;;;;;;;;;775587;181;916018;-64
2023/02/25 03:40:11;;;;;;;4.40;2.87;;;;;;;;;;771307;179;919383;-64
2023/02/25 03:42:36;;;;;;;7.37;3.83;;;;;;;;;;772140;180;918969;-64
2023/02/25 03:45:02;;;;;;;4.50;2.83;;;;;;;;;;774472;181;918689;-64
2023/02/25 03:47:28;;;;;;;3.40;2.70;;;;;;;;;;769522;181;913819;-67
2023/02/25 03:49:59;;;;;;;3.60;2.40;;;;;;;;;;771011;181;920402;-63
2023/02/25 03:52:25;;;;;;;3.53;2.43;;;;;;;;;;764217;182;922576;-63
2023/02/25 03:54:51;;;;;;;4.10;2.77;;;;;;;;;;766228;180;920348;-64
2023/02/25 03:57:16;;;;;;;4.37;2.42;;;;;;;;;;771710;180;916449;-68
2023/02/25 03:59:42;;;;;;;5.20;2.87;;;;;;;;;;769188;180;925108;-65
2023/02/25 04:02:08;;;;;;;5.23;3.40;;;;;;;;;;776620;181;916761;-71
2023/02/25 04:04:34;;;;;;;4.37;3.05;;;;;;;;;;769203;181;936904;-69
2023/02/25 04:07:00;;;;;;;3.90;2.70;;;;;;;;;;771886;181;816266;-65
2023/02/25 04:09:26;;;;;;;8.10;3.10;;;;;;;;;;779770;180;917744;-69
2023/02/25 04:11:55;;;;;;;3.50;2.70;;;;;;;;;;776716;180;919461;-70
2023/02/25 04:14:17;;;;;;;4.93;2.70;;;;;;;;;;776113;181;917960;-65
2023/02/25 04:16:43;;;;;;;3.90;3.30;;;;;;;;;;770472;181;881324;-67
2023/02/25 04:19:09;;;;;;;4.50;2.93;;;;;;;;;;760767;183;915538;-69
2023/02/25 04:21:35;;;;;;;4.07;3.10;;;;;;;;;;768235;180;916147;-70
2023/02/25 04:24:01;;;;;;;4.07;2.75;;;;;;;;;;771905;181;920003;-66
2023/02/25 04:26:26;;;;;;;4.07;2.87;;;;;;;;;;776272;180;919289;-70
2023/02/25 04:28:52;;;;;;;5.57;3.40;;;;;;;;;;772581;180;906882;-70
2023/02/25 04:31:18;;;;;;;6.13;3.30;;;;;;;;;;773209;181;918798;-67
2023/02/25 04:33:48;;;;;;;4.40;2.90;;;;;;;;;;777747;180;919124;-70
2023/02/25 04:36:10;;;;;;;5.53;2.70;;;;;;;;;;769897;180;918050;-67
2023/02/25 04:38:36;;;;;;;6.13;3.30;;;;;;;;;;769697;182;921223;-71
2023/02/25 04:41:01;;;;;;;5.03;2.93;;;;;;;;;;774252;182;915535;-70
2023/02/25 04:43:27;;;;;;;5.00;3.70;;;;;;;;;;765611;182;919259;-70
2023/02/25 04:45:53;;;;;;;6.10;4.03;;;;;;;;;;768310;179;922810;-67
2023/02/25 04:48:22;;;;;;;4.50;2.80;;;;;;;;;;773081;180;921230;-65
2023/02/25 04:50:45;;;;;;;6.53;2.97;;;;;;;;;;776822;180;919154;-66
2023/02/25 04:53:11;;;;;;;4.83;3.30;;;;;;;;;;768601;180;919447;-70
2023/02/25 04:55:36;;;;;;;5.40;2.93;;;;;;;;;;766827;181;925735;-72
2023/02/25 04:58:02;;;;;;;4.50;3.10;;;;;;;;;;772643;181;920126;-69
2023/02/25 05:00:28;;;;;;;5.60;2.80;;;;;;;;;;767789;181;918850;-70
2023/02/25 05:02:54;;;;;;;9.13;3.27;;;;;;;;;;768230;181;1021597;-71
2023/02/25 05:05:20;;;;;;;4.93;3.33;;;;;;;;;;777220;181;816448;-66
2023/02/25 05:07:46;;;;;;;4.40;3.00;;;;;;;;;;769044;181;817847;-71
2023/02/25 05:10:11;;;;;;;5.60;3.10;;;;;;;;;;768274;181;919710;-69
2023/02/25 05:12:37;;;;;;;5.27;2.60;;;;;;;;;;773102;181;905602;-70
2023/02/25 05:15:04;;;;;;;7.45;3.45;;;;;;;;;;760924;183;875154;-69
2023/02/25 05:17:29;;;;;;;9.50;3.47;;;;;;;;;;768436;180;856590;-67
2023/02/25 05:19:57;;;;;;;9.00;3.47;;;;;;;;;;768302;181;933871;-66
2023/02/25 05:22:21;;;;;;;5.20;3.07;;;;;;;;;;776843;179;918443;-71
2023/02/25 05:24:47;;;;;;;3.83;2.77;;;;;;;;;;772794;180;1014056;-71
2023/02/25 05:27:13;;;;;;;4.17;2.73;;;;;;;;;;767771;180;918478;-71
2023/02/25 05:29:39;;;;;;;4.37;2.57;;;;;;;;;;772478;179;918705;-66
2023/02/25 05:32:05;;;;;;;3.83;2.63;;;;;;;;;;765164;180;919324;-66
2023/02/25 05:34:30;;;;;;;4.13;2.93;;;;;;;;;;768054;180;1014056;-65
2023/02/25 05:36:56;;;;;;;15.00;4.40;;;;;;;;;;771543;181;919671;-66
2023/02/25 05:39:22;;;;;;;8.03;5.63;;;;;;;;;;765810;181;918969;-66
2023/02/25 05:41:50;;;;;;;6.00;3.40;;;;;;;;;;764969;180;922286;-66
2023/02/25 05:44:15;;;;;;;6.60;3.28;;;;;;;;;;767915;180;1024155;-71
2023/02/25 05:46:40;;;;;;;10.63;4.00;;;;;;;;;;779022;180;816849;-66
2023/02/25 05:49:06;;;;;;;6.00;3.07;;;;;;;;;;768335;181;919503;-67
2023/02/25 05:51:32;;;;;;;5.70;2.35;;;;;;;;;;769708;180;921153;-71
2023/02/25 05:53:59;;;;;;;4.03;2.13;;;;;;;;;;777058;181;815717;-71
2023/02/25 05:56:23;;;;;;;4.60;2.83;;;;;;;;;;771886;181;920298;-67
2023/02/25 05:58:49;;;;;;;5.10;3.30;;;;;;;;;;772822;181;907749;-66
2023/02/25 06:01:15;;;;;;;3.20;2.20;;;;;;;;;;776078;181;916093;-72
2023/02/25 06:03:41;;;;;;;4.13;2.70;;;;;;;;;;767535;180;919054;-71
2023/02/25 06:06:07;;;;;;;4.60;2.90;;;;;;;;;;764820;181;918512;-72
2023/02/25 06:08:32;;;;;;;5.40;3.00;;;;;;;;;;763899;180;938766;-71
2023/02/25 06:10:59;;;;;;;3.53;2.57;;;;;;;;;;780043;180;916190;-72
2023/02/25 06:13:24;;;;;;;4.17;2.93;;;;;;;;;;771392;180;921244;-67
2023/02/25 06:15:50;;;;;;;4.50;2.83;;;;;;;;;;767588;182;918828;-71
2023/02/25 06:18:16;;;;;;;3.93;2.80;;;;;;;;;;773134;179;920359;-73
2023/02/25 06:20:42;;;;;;;6.53;3.07;;;;;;;;;;769827;181;1020700;-67
2023/02/25 06:23:08;;;;;;;3.45;2.80;;;;;;;;;;770460;179;919443;-66
2023/02/25 06:25:33;;;;;;;4.33;2.90;;;;;;;;;;772644;179;911759;-71
2023/02/25 06:27:59;;;;;;;7.13;3.43;;;;;;;;;;766932;181;891326;-67
2023/02/25 06:30:25;;;;;;;6.03;3.13;;;;;;;;;;765992;182;916500;-67
2023/02/25 06:32:51;;;;;;;4.50;2.60;;;;;;;;;;771364;181;920206;-71
2023/02/25 06:35:17;;;;;;;3.77;2.30;;;;;;;;;;779879;175;819223;-66
2023/02/25 06:37:43;;;;;;;4.40;2.90;;;;;;;;;;770947;180;1021085;-71
2023/02/25 06:40:11;;;;;;;4.30;2.70;;;;;;;;;;772414;180;923099;-67
2023/02/25 06:42:35;;;;;;;5.17;3.50;;;;;;;;;;772229;181;920311;-66
2023/02/25 06:45:01;;;;;;;9.00;3.07;;;;;;;;;;774131;180;913846;-67
2023/02/25 06:47:26;;;;;;;4.07;2.80;;;;;;;;;;771623;180;933605;-71
2023/02/25 06:49:52;;;;;;;4.30;2.70;;;;;;;;;;776164;180;917187;-66
2023/02/25 06:52:18;;;;;;;8.87;3.10;;;;;;;;;;769678;181;917332;-72
2023/02/25 06:54:44;;;;;;;4.07;2.57;;;;;;;;;;768530;181;920664;-67
2023/02/25 06:57:10;;;;;;;6.87;3.33;;;;;;;;;;773803;181;919355;-71
2023/02/25 06:59:36;;;;;;;3.40;1.90;;;;;;;;;;765462;181;915238;-66
2023/02/25 07:02:02;;;;;;;6.43;2.63;;;;;;;;;;771211;179;919229;-67
2023/02/25 07:04:28;;;;;;;3.20;2.50;;;;;;;;;;769222;181;918969;-71
2023/02/25 07:06:54;;;;;;;4.53;2.50;;;;;;;;;;776082;180;818471;-68
2023/02/25 07:09:19;;;;;;;3.20;2.47;;;;;;;;;;769225;180;820207;-71
2023/02/25 07:11:46;;;;;;;4.67;2.93;;;;;;;;;;769447;180;821441;-66
2023/02/25 07:14:13;;;;;;;5.73;2.97;;;;;;;;;;770352;181;1122700;-66
2023/02/25 07:16:37;;;;;;;2.73;2.00;;;;;;;;;;770159;180;919053;-66
2023/02/25 07:19:03;;;;;;;4.15;1.80;;;;;;;;;;773690;180;918302;-66
2023/02/25 07:21:29;;;;;;;7.67;2.23;;;;;;;;;;776027;180;916352;-67
2023/02/25 07:23:55;;;;;;;2.97;2.00;;;;;;;;;;770572;181;1022414;-66
2023/02/25 07:26:21;;;;;;;6.50;3.10;;;;;;;;;;771106;181;915622;-67
2023/02/25 07:28:47;;;;;;;4.73;2.03;;;;;;;;;;770777;181;887466;-72
2023/02/25 07:31:13;;;;;;;3.00;1.83;;;;;;;;;;776387;181;915803;-72
2023/02/25 07:33:40;;;;;;;2.90;2.10;;;;;;;;;;770175;181;922660;-72
2023/02/25 07:36:05;;;;;;;4.57;2.97;;;;;;;;;;770577;181;816561;-73
2023/02/25 07:38:31;;;;;;;5.43;2.00;;;;;;;;;;775432;181;816314;-72
2023/02/25 07:40:57;;;;;;;3.40;1.90;;;;;;;;;;774032;180;890525;-73
2023/02/25 07:43:23;;;;;;;3.67;1.93;;;;;;;;;;765464;181;916382;-65
2023/02/25 07:45:48;;;;;;;3.50;1.80;;;;;;;;;;781757;179;793867;-72
2023/02/25 07:48:14;;;;;;;3.70;2.27;;;;;;;;;;777121;180;713890;-67
2023/02/25 07:50:40;;;;;;;3.20;1.90;;;;;;;;;;772145;180;1021640;-72
2023/02/25 07:53:06;;;;;;;5.10;2.20;;;;;;;;;;776861;180;735984;-67
2023/02/25 07:55:32;;;;;;;5.03;2.43;;;;;;;;;;768041;182;639265;-72
2023/02/25 07:57:58;;;;;;;4.23;2.43;;;;;;;;;;771568;179;921445;-66
2023/02/25 08:00:24;;;;;;;4.50;2.20;;;;;;;;;;770966;180;888286;-66
2023/02/25 08:02:49;;;;;;;3.47;2.20;;;;;;;;;;777201;180;720579;-74
2023/02/25 08:05:20;;;;;;;4.57;2.17;;;;;;;;;;768182;182;1019754;-66
2023/02/25 08:07:41;;;;;;;4.57;2.40;;;;;;;;;;775623;181;624274;-66
2023/02/25 08:10:07;;;;;;;4.50;2.10;;;;;;;;;;781089;180;622931;-65
2023/02/25 08:12:33;;;;;;;3.60;1.73;;;;;;;;;;775523;181;619672;-67
2023/02/25 08:15:00;;;;;;;2.67;1.67;;;;;;;;;;773959;181;1019663;-65
2023/02/25 08:17:30;;;;;;;2.83;1.67;;;;;;;;;;775391;180;628766;-73
2023/02/25 08:19:51;;;;;;;3.00;1.70;;;;;;;;;;765930;182;628768;-73
2023/02/25 08:22:16;;;;;;;4.30;1.50;;;;;;;;;;765102;182;627375;-74
2023/02/25 08:24:42;;;;;;;3.87;1.50;;;;;;;;;;771025;181;913238;-66
2023/02/25 08:27:08;;;;;;;4.00;1.77;;;;;;;;;;780234;180;819639;-66
2023/02/25 08:29:35;;;;;;;2.50;1.50;;;;;;;;;;770847;180;919616;-66
2023/02/25 08:32:00;;;;;;;3.57;1.80;;;;;;;;;;770548;181;917724;-66
2023/02/25 08:34:26;;;;;;;3.47;1.60;;;;;;;;;;778589;180;918717;-74
2023/02/25 08:36:53;;;;;;;3.00;1.27;;;;;;;;;;769489;180;920447;-73
2023/02/25 08:39:18;;;;;;;2.50;1.50;;;;;;;;;;769489;181;919314;-66
2023/02/25 08:41:44;;;;;;;4.07;2.40;;;;;;;;;;772348;181;919398;-66
2023/02/25 08:44:10;;;;;;;3.13;1.63;;;;;;;;;;776568;176;918686;-74
2023/02/25 08:46:36;;;;;;;3.90;2.37;;;;;;;;;;767427;180;916193;-66
2023/02/25 08:49:02;;;;;;;4.93;1.87;;;;;;;;;;765006;180;915997;-73
2023/02/25 08:51:32;;;;;;;6.23;1.97;;;;;;;;;;772405;181;909756;-65
2023/02/25 08:53:53;;;;;;;3.47;1.90;;;;;;;;;;768482;180;919418;-72
2023/02/25 08:56:19;;;;;;;2.70;1.40;;;;;;;;;;770877;180;921112;-72
2023/02/25 08:58:45;;;;;;;2.77;1.60;;;;;;;;;;775134;181;919870;-73
2023/02/25 09:01:12;;;;;;;6.50;3.10;;;;;;;;;;768149;181;920255;-65
2023/02/25 09:03:37;;;;;;;5.17;2.43;;;;;;;;;;771537;180;919705;-66
2023/02/25 09:06:04;;;;;;;3.17;1.20;;;;;;;;;;774436;181;1017483;-71
2023/02/25 09:08:30;;;;;;;2.93;1.40;;;;;;;;;;768760;183;817138;-66
2023/02/25 09:10:56;;;;;;;2.83;1.27;;;;;;;;;;764372;181;918706;-73
2023/02/25 09:13:22;;;;;;;2.20;1.10;;;;;;;;;;775251;180;918268;-65
2023/02/25 09:15:54;;;;;;;2.70;1.43;;;;;;;;;;776555;180;918473;-73
2023/02/25 09:18:20;;;;;;;4.60;2.13;;;;;;;;;;766385;180;918849;-73
2023/02/25 09:20:45;;;;;;;2.80;1.47;;;;;;;;;;767252;180;918506;-65
2023/02/25 09:23:14;;;;;;;8.02;1.92;;;;;;;;;;772041;181;911288;-71
2023/02/25 09:25:38;;;;;;;3.10;1.63;;;;;;;;;;764236;183;921107;-74
2023/02/25 09:28:04;;;;;;;2.63;1.47;;;;;;;;;;769419;181;890294;-65
2023/02/25 09:30:29;;;;;;;2.58;1.25;;;;;;;;;;773292;181;922800;-69
2023/02/25 09:32:55;;;;;;;2.60;1.30;;;;;;;;;;778862;180;921257;-64
2023/02/25 09:35:21;;;;;;;3.40;1.37;;;;;;;;;;769572;179;939486;-72
2023/02/25 09:37:47;;;;;;;4.90;1.50;;;;;;;;;;768702;181;915348;-65
2023/02/25 09:40:15;;;;;;;2.77;1.40;;;;;;;;;;773932;181;919668;-64
2023/02/25 09:42:39;;;;;;;3.70;1.80;;;;;;;;;;769149;181;919059;-72
2023/02/25 09:45:05;;;;;;;4.10;1.37;;;;;;;;;;770458;179;919497;-73
2023/02/25 09:47:31;;;;;;;4.53;2.13;;;;;;;;;;774345;181;821806;-67
2023/02/25 09:49:59;;;;;;;2.67;1.33;;;;;;;;;;768402;181;832178;-73
2023/02/25 09:52:27;;;;;;;4.70;1.63;;;;;;;;;;768819;181;919895;-65
2023/02/25 09:54:52;;;;;;;2.23;1.13;;;;;;;;;;768533;181;915156;-72
2023/02/25 09:57:17;;;;;;;4.20;1.67;;;;;;;;;;775248;181;910774;-71
2023/02/25 09:59:43;;;;;;;2.77;1.33;;;;;;;;;;769468;180;884808;-75
2023/02/25 10:02:13;;;;;;;3.00;1.10;;;;;;;;;;770741;181;815176;-64
2023/02/25 10:04:40;;;;;;;2.50;1.27;;;;;;;;;;775569;181;635700;-71
2023/02/25 10:07:07;;;;;;;2.50;1.33;;;;;;;;;;777926;180;609325;-72
2023/02/25 10:09:33;;;;;;;2.77;1.30;;;;;;;;;;773387;180;815258;-65
2023/02/25 10:12:04;;;;;;;5.40;1.93;;;;;;;;;;775636;180;851844;-73
2023/02/25 10:14:34;;;;;;;3.30;1.30;;;;;;;;;;775153;181;919191;-64
2023/02/25 10:17:02;;;;;;;2.57;1.53;;;;;;;;;;762986;182;918844;-73
2023/02/25 10:19:28;;;;;;;2.57;1.27;;;;;;;;;;767075;179;849295;-73
2023/02/25 10:22:00;;;;;;;5.10;2.27;;;;;;;;;;772488;181;818206;-73
2023/02/25 10:24:28;;;;;;;2.53;1.33;;;;;;;;;;777662;179;814622;-73
2023/02/25 10:26:55;;;;;;;2.43;1.33;;;;;;;;;;773559;180;722482;-75
2023/02/25 10:29:24;;;;;;;2.60;1.47;;;;;;;;;;768026;178;1007812;-65
2023/02/25 10:31:50;;;;;;;2.17;1.20;;;;;;;;;;769416;179;887651;-66
2023/02/25 10:34:17;;;;;;;4.57;2.23;;;;;;;;;;776900;180;920003;-65
2023/02/25 10:36:43;;;;;;;2.33;1.17;;;;;;;;;;770854;179;948226;-65
2023/02/25 10:39:09;;;;;;;2.83;1.60;;;;;;;;;;774112;179;616393;-66
2023/02/25 10:41:35;;;;;;;7.17;3.67;;;;;;;;;;776621;181;815031;-66
2023/02/25 10:44:01;;;;;;;4.40;1.73;;;;;;;;;;768181;181;919020;-66
2023/02/25 10:46:32;;;;;;;3.73;1.83;;;;;;;;;;767747;181;920502;-65
2023/02/25 10:48:58;;;;;;;2.08;1.20;;;;;;;;;;768656;181;918972;-74
2023/02/25 10:51:26;;;;;;;2.83;1.30;;;;;;;;;;774073;181;920515;-65
2023/02/25 10:54:05;;;;;;;4.73;1.70;;;;;;;;;;769393;180;820053;-66
2023/02/25 10:56:30;;;;;;;7.43;2.17;;;;;;;;;;770570;181;830614;-66
2023/02/25 10:59:01;;;;;;;3.60;1.80;;;;;;;;;;768641;181;915857;-65
2023/02/25 11:01:28;;;;;;;3.70;1.50;;;;;;;;;;767570;179;909191;-66
2023/02/25 11:03:57;;;;;;;3.50;1.30;;;;;;;;;;756082;183;818700;-75
2023/02/25 11:06:21;;;;;;;2.17;1.20;;;;;;;;;;771153;181;704776;-73
2023/02/25 11:08:47;;;;;;;2.20;1.00;;;;;;;;;;774151;180;628397;-71
2023/02/25 11:11:21;;;;;;;1.97;0.83;;;;;;;;;;774589;179;708651;-67
2023/02/25 11:13:52;;;;;;;3.57;1.33;;;;;;;;;;768756;183;619435;-72
2023/02/25 11:16:18;;;;;;;2.57;1.30;;;;;;;;;;773353;180;790850;-71
2023/02/25 11:18:44;;;;;;;1.87;0.87;;;;;;;;;;773435;179;918475;-65
2023/02/25 11:21:10;;;;;;;2.00;1.00;;;;;;;;;;780243;180;630226;-71
2023/02/25 11:23:35;;;;;;;1.90;0.90;;;;;;;;;;774464;180;621421;-72
2023/02/25 11:26:01;;;;;;;2.30;1.13;;;;;;;;;;774406;178;651337;-72
2023/02/25 11:28:29;;;;;;;2.20;1.00;;;;;;;;;;778091;181;626876;-66
2023/02/25 11:30:55;;;;;;;1.90;1.10;;;;;;;;;;767195;183;915528;-71
2023/02/25 11:33:22;;;;;;;2.57;1.47;;;;;;;;;;768762;180;918159;-67
2023/02/25 11:35:47;;;;;;;2.60;1.03;;;;;;;;;;770789;180;920838;-65
2023/02/25 11:38:14;;;;;;;1.80;1.00;;;;;;;;;;773108;181;920034;-66
2023/02/25 11:40:40;;;;;;;2.03;1.20;;;;;;;;;;771138;180;917787;-72
2023/02/25 11:43:16;;;;;;;2.37;1.07;;;;;;;;;;770711;180;817771;-65
2023/02/25 11:46:00;;;;;;;2.37;1.23;;;;;;;;;;769620;180;925811;-73
2023/02/25 11:48:28;;;;;;;1.80;0.90;;;;;;;;;;769756;181;909088;-66
2023/02/25 11:51:01;;;;;;;2.10;1.10;;;;;;;;;;775529;180;820967;-73
2023/02/25 11:53:27;;;;;;;2.80;1.20;;;;;;;;;;768165;180;912324;-66
2023/02/25 11:55:53;;;;;;;1.90;0.93;;;;;;;;;;767670;181;917014;-66
2023/02/25 11:58:37;;;;;;;2.03;1.20;;;;;;;;;;771328;181;918370;-72
2023/02/25 12:01:03;;;;;;;2.23;1.27;;;;;;;;;;756027;180;820041;-73
2023/02/25 12:03:34;;;;;;;2.20;1.10;;;;;;;;;;773740;180;816138;-74
2023/02/25 12:06:04;;;;;;;2.00;1.03;;;;;;;;;;774627;180;815332;-65
2023/02/25 12:08:31;;;;;;;4.13;1.10;;;;;;;;;;769812;180;918394;-66
2023/02/25 12:11:00;;;;;;;2.00;1.10;;;;;;;;;;772494;181;666223;-73
2023/02/25 12:13:27;;;;;;;2.00;0.90;;;;;;;;;;774941;180;918179;-66
2023/02/25 12:16:11;;;;;;;3.30;1.43;;;;;;;;;;768695;181;902611;-65
2023/02/25 12:18:37;;;;;;;2.10;1.20;;;;;;;;;;761322;179;814967;-67
2023/02/25 12:21:04;;;;;;;3.30;1.50;;;;;;;;;;769952;181;901270;-66
2023/02/25 12:23:45;;;;;;;1.90;1.10;;;;;;;;;;769000;181;895482;-65
2023/02/25 12:26:14;;;;;;;3.10;1.40;;;;;;;;;;744418;186;884923;-66
2023/02/25 12:28:46;;;;;;;4.25;1.62;;;;;;;;;;768846;179;920864;-75
2023/02/25 12:31:17;;;;;;;2.27;1.20;;;;;;;;;;773789;180;945378;-66
2023/02/25 12:33:49;;;;;;;2.47;1.40;;;;;;;;;;773105;180;918850;-66
2023/02/25 12:36:15;;;;;;;2.90;1.57;;;;;;;;;;771024;180;802900;-73
2023/02/25 12:38:44;;;;;;;2.53;1.43;;;;;;;;;;776642;181;835631;-67
2023/02/25 12:41:14;;;;;;;2.30;1.37;;;;;;;;;;771362;181;892963;-73
2023/02/25 12:43:42;;;;;;;2.80;1.50;;;;;;;;;;768077;180;910789;-74
2023/02/25 12:46:14;;;;;;;5.03;1.53;;;;;;;;;;771151;181;916251;-74
2023/02/25 12:48:58;;;;;;;2.90;1.63;;;;;;;;;;777801;181;634561;-66
2023/02/25 12:51:39;;;;;;;4.28;1.95;;;;;;;;;;762696;180;877998;-73
2023/02/25 12:54:20;;;;;;;4.23;2.37;;;;;;;;;;757627;183;914451;-66
2023/02/25 12:56:53;;;;;;;2.80;1.70;;;;;;;;;;747975;182;919291;-74
2023/02/25 12:59:23;;;;;;;2.80;1.80;;;;;;;;;;769079;179;914536;-74
2023/02/25 13:01:50;;;;;;;3.47;1.73;;;;;;;;;;770027;179;817476;-73
2023/02/25 13:04:23;;;;;;;5.00;2.20;;;;;;;;;;767963;181;919952;-74
2023/02/25 13:07:05;;;;;;;3.60;1.83;;;;;;;;;;768263;181;919466;-67
2023/02/25 13:09:31;;;;;;;2.80;1.70;;;;;;;;;;770861;181;918992;-67
2023/02/25 13:12:03;;;;;;;3.30;1.90;;;;;;;;;;772217;181;917284;-74
2023/02/25 13:14:45;;;;;;;2.83;1.70;;;;;;;;;;769915;179;914282;-66
2023/02/25 13:17:16;;;;;;;3.60;1.70;;;;;;;;;;770884;181;768668;-73
2023/02/25 13:19:52;;;;;;;3.60;2.12;;;;;;;;;;768879;181;819205;-66
2023/02/25 13:22:33;;;;;;;4.13;1.87;;;;;;;;;;768131;179;919374;-75
2023/02/25 13:25:03;;;;;;;3.00;1.73;;;;;;;;;;754916;181;1019758;-67
2023/02/25 13:27:28;;;;;;;2.87;2.00;;;;;;;;;;771284;181;918707;-66
2023/02/25 13:29:58;;;;;;;3.00;2.07;;;;;;;;;;773498;179;919904;-74
2023/02/25 13:32:26;;;;;;;4.87;2.60;;;;;;;;;;769275;180;919096;-66
2023/02/25 13:34:53;;;;;;;3.60;1.93;;;;;;;;;;772015;180;822302;-74
2023/02/25 13:37:30;;;;;;;3.07;1.70;;;;;;;;;;774169;181;914652;-66
2023/02/25 13:40:11;;;;;;;2.87;1.37;;;;;;;;;;769356;181;869406;-73
2023/02/25 13:42:41;;;;;;;4.13;2.07;;;;;;;;;;770815;181;918368;-66
2023/02/25 13:45:12;;;;;;;4.70;1.97;;;;;;;;;;768266;180;919407;-66
2023/02/25 13:47:42;;;;;;;3.13;1.80;;;;;;;;;;772350;180;918117;-74
2023/02/25 13:50:14;;;;;;;3.00;1.90;;;;;;;;;;771922;180;886446;-75
2023/02/25 13:52:54;;;;;;;2.53;1.70;;;;;;;;;;775413;180;811294;-66
2023/02/25 13:55:37;;;;;;;2.70;1.80;;;;;;;;;;758857;179;919136;-66
2023/02/25 13:58:05;;;;;;;4.63;2.40;;;;;;;;;;762390;183;918007;-74
2023/02/25 14:00:36;;;;;;;4.00;2.20;;;;;;;;;;769463;180;920743;-74
2023/02/25 14:03:03;;;;;;;5.30;1.80;;;;;;;;;;771178;181;822043;-73
2023/02/25 14:05:35;;;;;;;2.43;1.07;;;;;;;;;;770229;181;918626;-66
2023/02/25 14:08:06;;;;;;;2.70;1.50;;;;;;;;;;771890;181;912922;-73
2023/02/25 14:10:35;;;;;;;2.40;1.40;;;;;;;;;;768363;180;920830;-75
2023/02/25 14:13:21;;;;;;;2.50;1.47;;;;;;;;;;770658;181;815964;-74
2023/02/25 14:15:47;;;;;;;2.67;1.60;;;;;;;;;;767853;181;919361;-73
2023/02/25 14:18:28;;;;;;;3.83;1.90;;;;;;;;;;769189;181;819058;-66
2023/02/25 14:20:53;;;;;;;2.73;1.73;;;;;;;;;;755884;181;913578;-74
2023/02/25 14:23:20;;;;;;;3.10;1.67;;;;;;;;;;768908;181;916181;-74
2023/02/25 14:25:46;;;;;;;2.50;1.80;;;;;;;;;;770377;180;912929;-73
2023/02/25 14:28:32;;;;;;;5.30;2.70;;;;;;;;;;770265;180;902296;-65